createdAt,value
2023-03-06T00:02:06.333Z,100.00
2023-03-06T00:04:33.784Z,100.00
2023-03-06T00:07:01.209Z,100.00
2023-03-06T00:09:28.704Z,100.00
2023-03-06T00:11:56.173Z,100.00
2023-03-06T00:14:25.410Z,100.00
2023-03-06T00:16:55.004Z,100.00
2023-03-06T00:19:22.509Z,100.00
2023-03-06T00:21:50.013Z,100.00
2023-03-06T00:24:17.518Z,100.00
2023-03-06T00:26:45.048Z,100.00
2023-03-06T00:29:12.525Z,100.00
2023-03-06T00:31:44.621Z,100.00
2023-03-06T00:34:12.114Z,100.00
2023-03-06T00:36:39.590Z,100.00
2023-03-06T00:39:07.081Z,100.00
2023-03-06T00:41:34.582Z,100.00
2023-03-06T00:44:02.068Z,100.00
2023-03-06T00:46:29.515Z,100.00
2023-03-06T00:48:58.326Z,100.00
2023-03-06T00:51:25.761Z,100.00
2023-03-06T00:53:53.256Z,100.00
2023-03-06T00:56:20.822Z,100.00
2023-03-06T00:58:48.245Z,100.00
2023-03-06T01:01:15.811Z,100.00
2023-03-06T01:03:43.293Z,100.00
2023-03-06T01:06:12.106Z,100.00
2023-03-06T01:08:39.543Z,100.00
2023-03-06T01:11:07.214Z,100.00
2023-03-06T01:13:34.689Z,100.00
2023-03-06T01:16:09.263Z,100.00
2023-03-06T01:18:36.741Z,100.00
2023-03-06T01:21:04.631Z,100.00
2023-03-06T01:23:33.439Z,100.00
2023-03-06T01:26:00.969Z,100.00
2023-03-06T01:28:28.567Z,100.00
2023-03-06T01:30:56.169Z,100.00
2023-03-06T01:33:23.640Z,100.00
2023-03-06T01:35:51.121Z,100.00
2023-03-06T01:38:18.592Z,100.00
2023-03-06T01:40:47.357Z,100.00
2023-03-06T01:43:26.954Z,100.00
2023-03-06T01:46:12.965Z,100.00
2023-03-06T01:48:40.611Z,100.00
2023-03-06T01:51:08.160Z,100.00
2023-03-06T01:53:35.685Z,100.00
2023-03-06T01:56:04.813Z,100.00
2023-03-06T01:58:32.345Z,100.00
2023-03-06T02:00:59.834Z,100.00
2023-03-06T02:03:28.389Z,100.00
2023-03-06T02:05:56.683Z,100.00
2023-03-06T02:08:24.317Z,100.00
2023-03-06T02:10:56.514Z,100.00
2023-03-06T02:13:25.546Z,100.00
2023-03-06T02:15:53.016Z,100.00
2023-03-06T02:18:20.502Z,100.00
2023-03-06T02:20:51.325Z,100.00
2023-03-06T02:23:22.013Z,100.00
2023-03-06T02:25:52.110Z,100.00
2023-03-06T02:28:21.040Z,100.00
2023-03-06T02:30:49.710Z,100.00
2023-03-06T02:33:18.200Z,100.00
2023-03-06T02:35:48.080Z,100.00
2023-03-06T02:38:16.998Z,100.00
2023-03-06T02:40:45.196Z,100.00
2023-03-06T02:43:16.162Z,100.00
2023-03-06T02:45:45.386Z,100.00
2023-03-06T02:48:13.486Z,100.00
2023-03-06T02:50:41.370Z,100.00
2023-03-06T02:53:09.703Z,100.00
2023-03-06T02:55:37.237Z,100.00
2023-03-06T02:58:05.033Z,100.00
2023-03-06T03:00:34.792Z,100.00
2023-03-06T03:03:02.565Z,100.00
2023-03-06T03:05:30.077Z,100.00
2023-03-06T03:07:57.586Z,100.00
2023-03-06T03:10:25.349Z,100.00
2023-03-06T03:12:52.818Z,100.00
2023-03-06T03:15:20.413Z,100.00
2023-03-06T03:17:49.286Z,100.00
2023-03-06T03:20:18.263Z,100.00
2023-03-06T03:22:48.605Z,100.00
2023-03-06T03:25:16.128Z,100.00
2023-03-06T03:27:43.608Z,100.00
2023-03-06T03:30:11.818Z,100.00
2023-03-06T03:32:39.274Z,100.00
2023-03-06T03:35:09.913Z,100.00
2023-03-06T03:37:37.825Z,100.00
2023-03-06T03:40:06.630Z,100.00
2023-03-06T03:42:34.257Z,100.00
2023-03-06T03:45:01.741Z,100.00
2023-03-06T03:47:29.215Z,100.00
2023-03-06T03:49:56.719Z,100.00
2023-03-06T03:52:25.562Z,100.00
2023-03-06T03:54:53.016Z,100.00
2023-03-06T03:57:20.507Z,100.00
2023-03-06T03:59:48.017Z,100.00
2023-03-06T04:02:15.826Z,100.00
2023-03-06T04:04:43.442Z,100.00
2023-03-06T04:07:10.924Z,100.00
2023-03-06T04:09:39.730Z,100.00
2023-03-06T04:12:07.906Z,100.00
2023-03-06T04:14:35.436Z,100.00
2023-03-06T04:17:02.944Z,100.00
2023-03-06T04:19:30.427Z,100.00
2023-03-06T04:21:57.891Z,100.00
2023-03-06T04:24:25.398Z,100.00
2023-03-06T04:26:54.244Z,100.00
2023-03-06T04:29:21.720Z,100.00
2023-03-06T04:31:49.246Z,100.00
2023-03-06T04:34:16.770Z,100.00
2023-03-06T04:36:45.973Z,100.00
2023-03-06T04:39:13.505Z,100.00
2023-03-06T04:41:41.171Z,100.00
2023-03-06T04:44:10.483Z,100.00
2023-03-06T04:46:38.059Z,100.00
2023-03-06T04:49:05.512Z,100.00
2023-03-06T04:51:33.024Z,100.00
2023-03-06T04:54:00.493Z,100.00
2023-03-06T04:56:27.958Z,100.00
2023-03-06T04:58:55.340Z,100.00
2023-03-06T05:01:24.256Z,100.00
2023-03-06T05:03:51.890Z,100.00
2023-03-06T05:06:19.365Z,100.00
2023-03-06T05:08:46.842Z,100.00
2023-03-06T05:11:14.364Z,100.00
2023-03-06T05:13:41.816Z,100.00
2023-03-06T05:16:09.670Z,100.00
2023-03-06T05:18:38.606Z,100.00
2023-03-06T05:21:06.889Z,100.00
2023-03-06T05:23:35.258Z,100.00
2023-03-06T05:26:05.821Z,100.00
2023-03-06T05:28:33.310Z,100.00
2023-03-06T05:31:03.302Z,100.00
2023-03-06T05:33:32.192Z,100.00
2023-03-06T05:36:01.035Z,100.00
2023-03-06T05:38:28.978Z,100.00
2023-03-06T05:40:56.452Z,100.00
2023-03-06T05:43:23.943Z,100.00
2023-03-06T05:45:52.937Z,100.00
2023-03-06T05:48:20.464Z,100.00
2023-03-06T05:50:55.558Z,100.00
2023-03-06T05:53:24.383Z,100.00
2023-03-06T05:55:56.580Z,100.00
2023-03-06T05:58:24.053Z,100.00
2023-03-06T06:00:52.082Z,100.00
2023-03-06T06:03:19.959Z,100.00
2023-03-06T06:05:47.438Z,100.00
2023-03-06T06:08:14.898Z,100.00
2023-03-06T06:10:43.891Z,100.00
2023-03-06T06:13:11.422Z,100.00
2023-03-06T06:15:39.164Z,100.00
2023-03-06T06:18:06.666Z,100.00
2023-03-06T06:20:34.143Z,100.00
2023-03-06T06:23:01.627Z,100.00
2023-03-06T06:25:29.101Z,100.00
2023-03-06T06:27:58.019Z,100.00
2023-03-06T06:30:25.681Z,100.00
2023-03-06T06:32:53.191Z,100.00
2023-03-06T06:35:20.646Z,100.00
2023-03-06T06:37:48.177Z,100.00
2023-03-06T06:40:15.901Z,100.00
2023-03-06T06:42:43.470Z,100.00
2023-03-06T06:45:12.730Z,100.00
2023-03-06T06:47:41.591Z,100.00
2023-03-06T06:50:12.296Z,100.00
2023-03-06T06:52:39.793Z,100.00
2023-03-06T06:55:07.620Z,100.00
2023-03-06T06:57:35.112Z,100.00
2023-03-06T07:00:02.597Z,100.00
2023-03-06T07:02:32.138Z,100.00
2023-03-06T07:05:04.658Z,100.00
2023-03-06T07:07:34.158Z,100.00
2023-03-06T07:10:01.660Z,100.00
2023-03-06T07:12:32.344Z,100.00
2023-03-06T07:14:59.831Z,100.00
2023-03-06T07:17:27.332Z,100.00
2023-03-06T07:19:56.146Z,100.00
2023-03-06T07:22:23.600Z,100.00
2023-03-06T07:24:51.082Z,100.00
2023-03-06T07:27:18.743Z,100.00
2023-03-06T07:29:46.539Z,100.00
2023-03-06T07:32:14.060Z,100.00
2023-03-06T07:34:41.581Z,100.00
2023-03-06T07:37:10.440Z,100.00
2023-03-06T07:39:37.958Z,100.00
2023-03-06T07:42:07.456Z,100.00
2023-03-06T07:44:37.179Z,100.00
2023-03-06T07:47:04.995Z,100.00
2023-03-06T07:49:32.922Z,100.00
2023-03-06T07:52:01.734Z,100.00
2023-03-06T07:54:32.559Z,100.00
2023-03-06T07:57:00.143Z,100.00
2023-03-06T07:59:27.617Z,100.00
2023-03-06T08:01:55.812Z,100.00
2023-03-06T08:04:23.295Z,100.00
2023-03-06T08:06:50.723Z,100.00
2023-03-06T08:09:18.145Z,100.00
2023-03-06T08:11:47.075Z,100.00
2023-03-06T08:14:14.520Z,100.00
2023-03-06T08:16:42.097Z,100.00
2023-03-06T08:19:09.545Z,100.00
2023-03-06T08:21:37.043Z,100.00
2023-03-06T08:24:05.508Z,100.00
2023-03-06T08:26:34.067Z,100.00
2023-03-06T08:29:03.694Z,100.00
2023-03-06T08:31:32.749Z,100.00
2023-03-06T08:34:01.110Z,100.00
2023-03-06T08:36:28.942Z,100.00
2023-03-06T08:38:58.180Z,100.00
2023-03-06T08:41:25.795Z,100.00
2023-03-06T08:43:54.096Z,100.00
2023-03-06T08:46:24.667Z,100.00
2023-03-06T08:48:52.174Z,100.00
2023-03-06T08:51:19.701Z,100.00
2023-03-06T08:53:47.410Z,100.00
2023-03-06T08:56:19.153Z,100.00
2023-03-06T08:58:47.921Z,100.00
2023-03-06T09:01:15.964Z,100.00
2023-03-06T09:03:44.814Z,100.00
2023-03-06T09:06:12.749Z,100.00
2023-03-06T09:08:42.935Z,100.00
2023-03-06T09:11:10.383Z,100.00
2023-03-06T09:13:37.857Z,100.00
2023-03-06T09:16:05.628Z,100.00
2023-03-06T09:18:33.124Z,100.00
2023-03-06T09:21:02.033Z,99.74
2023-03-06T09:23:29.489Z,99.88
2023-03-06T09:25:57.599Z,100.00
2023-03-06T09:28:25.380Z,100.00
2023-03-06T09:30:53.198Z,100.00
2023-03-06T09:33:21.105Z,100.00
2023-03-06T09:35:50.912Z,96.47
2023-03-06T09:38:19.885Z,97.66
2023-03-06T09:40:55.903Z,96.60
2023-03-06T09:43:26.814Z,95.86
2023-03-06T09:45:54.945Z,95.47
2023-03-06T09:48:23.491Z,94.64
2023-03-06T09:50:52.897Z,95.69
2023-03-06T09:53:32.438Z,96.40
2023-03-06T09:56:02.985Z,95.85
2023-03-06T09:58:33.485Z,94.81
2023-03-06T10:01:05.618Z,95.79
2023-03-06T10:03:39.010Z,94.25
2023-03-06T10:06:11.352Z,93.33
2023-03-06T10:08:47.686Z,94.28
2023-03-06T10:11:18.106Z,93.28
2023-03-06T10:13:47.884Z,93.86
2023-03-06T10:16:22.664Z,93.81
2023-03-06T10:18:50.411Z,93.34
2023-03-06T10:21:29.629Z,94.83
2023-03-06T10:24:03.145Z,95.23
2023-03-06T10:26:35.119Z,94.85
2023-03-06T10:29:16.125Z,95.66
2023-03-06T10:31:44.624Z,95.00
2023-03-06T10:34:16.917Z,95.05
2023-03-06T10:36:44.421Z,95.37
2023-03-06T10:39:16.171Z,94.13
2023-03-06T10:41:44.725Z,95.66
2023-03-06T10:44:23.600Z,96.85
2023-03-06T10:46:52.612Z,98.04
2023-03-06T10:49:37.960Z,99.26
2023-03-06T10:52:06.727Z,98.47
2023-03-06T10:54:36.807Z,97.56
2023-03-06T10:57:21.122Z,96.30
2023-03-06T10:59:52.880Z,97.03
2023-03-06T11:02:28.320Z,97.60
2023-03-06T11:04:56.443Z,99.12
2023-03-06T11:07:25.948Z,99.07
2023-03-06T11:10:02.922Z,99.19
2023-03-06T11:12:32.216Z,99.68
2023-03-06T11:15:11.050Z,100.00
2023-03-06T11:17:39.534Z,98.98
2023-03-06T11:20:17.520Z,98.96
2023-03-06T11:22:49.074Z,97.66
2023-03-06T11:25:19.423Z,96.69
2023-03-06T11:27:49.386Z,97.80
2023-03-06T11:30:19.331Z,98.09
2023-03-06T11:32:50.302Z,97.27
2023-03-06T11:35:21.346Z,98.00
2023-03-06T11:37:53.809Z,99.25
2023-03-06T11:40:25.577Z,96.95
2023-03-06T11:42:56.908Z,94.51
2023-03-06T11:45:28.504Z,94.24
2023-03-06T11:48:02.014Z,94.48
2023-03-06T11:50:32.528Z,95.08
2023-03-06T11:53:01.440Z,94.19
2023-03-06T11:55:40.415Z,93.62
2023-03-06T11:58:25.616Z,95.07
2023-03-06T12:00:55.388Z,93.74
2023-03-06T12:03:32.458Z,91.79
2023-03-06T12:06:04.759Z,92.82
2023-03-06T12:08:40.762Z,92.00
2023-03-06T12:14:04.121Z,89.43
2023-03-06T12:16:46.943Z,90.02
2023-03-06T12:19:21.104Z,91.54
2023-03-06T12:21:55.710Z,88.32
2023-03-06T12:24:31.658Z,88.00
2023-03-06T12:27:06.776Z,85.74
2023-03-06T12:29:41.932Z,86.58
2023-03-06T12:32:14.721Z,88.58
2023-03-06T12:34:51.422Z,88.07
2023-03-06T12:37:23.286Z,87.50
2023-03-06T12:39:58.059Z,88.14
2023-03-06T12:42:42.251Z,89.79
2023-03-06T12:45:18.474Z,88.62
2023-03-06T12:47:47.845Z,86.88
2023-03-06T12:50:20.136Z,85.89
2023-03-06T12:52:49.162Z,87.04
2023-03-06T12:55:21.179Z,86.76
2023-03-06T12:57:52.616Z,87.83
2023-03-06T13:00:35.120Z,88.48
2023-03-06T13:03:07.644Z,86.20
2023-03-06T13:05:39.766Z,84.06
2023-03-06T13:08:21.875Z,83.08
2023-03-06T13:11:02.020Z,82.20
2023-03-06T13:13:32.674Z,81.85
2023-03-06T13:16:11.164Z,82.70
2023-03-06T13:18:56.466Z,80.14
2023-03-06T13:21:42.601Z,75.53
2023-03-06T13:24:15.279Z,74.45
2023-03-06T13:26:54.922Z,76.90
2023-03-06T13:29:49.096Z,78.72
2023-03-06T13:32:19.791Z,77.70
2023-03-06T13:34:48.500Z,76.29
2023-03-06T13:37:34.354Z,75.86
2023-03-06T13:40:14.530Z,74.61
2023-03-06T13:42:56.840Z,71.80
2023-03-06T13:45:25.992Z,73.44
2023-03-06T13:48:27.347Z,74.67
2023-03-06T13:50:44.514Z,74.38
2023-03-06T13:53:24.462Z,73.82
2023-03-06T13:56:00.897Z,72.76
2023-03-06T13:58:37.209Z,72.03
2023-03-06T14:01:22.365Z,71.68
2023-03-06T14:03:58.287Z,72.67
2023-03-06T14:06:42.692Z,70.53
2023-03-06T14:09:14.573Z,69.95
2023-03-06T14:11:47.011Z,71.67
2023-03-06T14:14:14.686Z,71.53
2023-03-06T14:16:50.026Z,70.61
2023-03-06T14:19:19.965Z,71.08
2023-03-06T14:21:49.254Z,70.54
2023-03-06T14:24:17.904Z,70.51
2023-03-06T14:26:46.770Z,70.01
2023-03-06T14:29:21.175Z,70.02
2023-03-06T14:31:50.462Z,70.24
2023-03-06T14:34:21.582Z,69.36
2023-03-06T14:36:50.060Z,68.21
2023-03-06T14:39:21.251Z,68.81
2023-03-06T14:41:48.778Z,68.57
2023-03-06T14:44:17.997Z,68.59
2023-03-06T14:46:46.138Z,68.54
2023-03-06T14:49:15.112Z,68.24
2023-03-06T14:51:44.837Z,67.76
2023-03-06T14:54:15.215Z,68.97
2023-03-06T14:56:45.910Z,67.64
2023-03-06T14:59:15.903Z,66.78
2023-03-06T15:01:45.172Z,67.33
2023-03-06T15:04:17.493Z,67.85
2023-03-06T15:06:46.650Z,67.64
2023-03-06T15:09:15.944Z,65.31
2023-03-06T15:11:53.409Z,64.52
2023-03-06T15:14:22.313Z,64.52
2023-03-06T15:16:49.783Z,64.16
2023-03-06T15:19:19.177Z,64.50
2023-03-06T15:21:49.914Z,64.51
2023-03-06T15:24:31.871Z,64.15
2023-03-06T15:27:01.268Z,64.52
2023-03-06T15:29:28.724Z,65.46
2023-03-06T15:32:11.110Z,66.11
2023-03-06T15:34:38.631Z,66.26
2023-03-06T15:37:20.520Z,65.80
2023-03-06T15:40:01.824Z,65.84
2023-03-06T15:42:29.342Z,65.15
2023-03-06T15:44:58.701Z,64.87
2023-03-06T15:47:26.207Z,65.16
2023-03-06T15:49:53.873Z,65.47
2023-03-06T15:52:23.089Z,65.17
2023-03-06T15:54:50.887Z,65.77
2023-03-06T15:57:21.436Z,65.67
2023-03-06T15:59:48.928Z,65.90
2023-03-06T16:02:17.707Z,65.53
2023-03-06T16:04:45.630Z,66.17
2023-03-06T16:07:13.385Z,66.37
2023-03-06T16:09:42.530Z,65.92
2023-03-06T16:12:14.462Z,66.53
2023-03-06T16:14:41.935Z,66.99
2023-03-06T16:17:11.488Z,67.15
2023-03-06T16:19:39.050Z,68.46
2023-03-06T16:22:06.617Z,68.71
2023-03-06T16:24:34.101Z,69.86
2023-03-06T16:27:03.474Z,69.58
2023-03-06T16:29:30.971Z,69.26
2023-03-06T16:31:59.057Z,69.29
2023-03-06T16:34:26.798Z,69.04
2023-03-06T16:36:54.261Z,69.24
2023-03-06T16:39:23.000Z,69.18
2023-03-06T16:41:50.960Z,70.64
2023-03-06T16:44:20.359Z,71.01
2023-03-06T16:46:48.961Z,71.50
2023-03-06T16:49:17.768Z,71.95
2023-03-06T16:51:46.153Z,72.52
2023-03-06T16:54:14.189Z,73.82
2023-03-06T16:56:41.764Z,74.38
2023-03-06T16:59:09.269Z,74.33
2023-03-06T17:01:38.511Z,74.96
2023-03-06T17:04:06.077Z,74.76
2023-03-06T17:06:33.556Z,75.22
2023-03-06T17:09:01.079Z,76.01
2023-03-06T17:11:28.767Z,78.74
2023-03-06T17:13:56.255Z,79.36
2023-03-06T17:16:23.844Z,78.38
2023-03-06T17:18:52.745Z,77.88
2023-03-06T17:21:20.346Z,76.76
2023-03-06T17:23:47.828Z,76.12
2023-03-06T17:26:18.044Z,76.32
2023-03-06T17:28:46.078Z,76.39
2023-03-06T17:31:14.815Z,78.54
2023-03-06T17:33:42.740Z,79.85
2023-03-06T17:36:12.326Z,81.38
2023-03-06T17:38:39.819Z,82.56
2023-03-06T17:41:08.144Z,83.70
2023-03-06T17:43:36.030Z,84.05
2023-03-06T17:46:04.127Z,84.13
2023-03-06T17:48:31.581Z,84.47
2023-03-06T17:50:59.521Z,83.58
2023-03-06T17:53:28.533Z,84.60
2023-03-06T17:55:57.893Z,85.06
2023-03-06T17:58:25.446Z,85.99
2023-03-06T18:00:52.932Z,85.94
2023-03-06T18:03:20.421Z,86.42
2023-03-06T18:05:47.948Z,87.19
2023-03-06T18:08:15.810Z,88.03
2023-03-06T18:10:44.666Z,88.51
2023-03-06T18:13:12.140Z,88.19
2023-03-06T18:15:40.362Z,87.83
2023-03-06T18:18:08.252Z,88.86
2023-03-06T18:20:35.787Z,88.67
2023-03-06T18:23:03.645Z,89.80
2023-03-06T18:25:32.263Z,89.96
2023-03-06T18:28:01.166Z,90.37
2023-03-06T18:30:28.670Z,90.20
2023-03-06T18:32:56.166Z,91.09
2023-03-06T18:35:23.632Z,91.69
2023-03-06T18:37:52.136Z,92.12
2023-03-06T18:40:19.871Z,92.83
2023-03-06T18:42:48.000Z,92.40
2023-03-06T18:45:16.880Z,92.43
2023-03-06T18:47:44.325Z,92.80
2023-03-06T18:50:17.416Z,93.50
2023-03-06T18:52:44.953Z,93.20
2023-03-06T18:55:12.830Z,94.12
2023-03-06T18:57:40.816Z,94.30
2023-03-06T19:00:08.824Z,93.67
2023-03-06T19:02:37.690Z,94.07
2023-03-06T19:05:05.362Z,95.35
2023-03-06T19:07:32.810Z,94.79
2023-03-06T19:10:00.304Z,94.52
2023-03-06T19:12:27.796Z,94.67
2023-03-06T19:14:55.696Z,95.29
2023-03-06T19:17:24.968Z,95.56
2023-03-06T19:19:54.989Z,95.89
2023-03-06T19:22:23.057Z,95.72
2023-03-06T19:24:50.694Z,96.05
2023-03-06T19:27:18.206Z,96.43
2023-03-06T19:29:45.712Z,96.24
2023-03-06T19:32:13.349Z,96.02
2023-03-06T19:34:40.880Z,97.20
2023-03-06T19:37:09.749Z,96.51
2023-03-06T19:39:37.233Z,97.20
2023-03-06T19:42:05.464Z,96.89
2023-03-06T19:44:32.972Z,96.65
2023-03-06T19:47:00.416Z,96.43
2023-03-06T19:49:27.912Z,95.82
2023-03-06T19:51:55.379Z,95.65
2023-03-06T19:54:25.431Z,95.41
2023-03-06T19:56:52.908Z,95.74
2023-03-06T19:59:20.435Z,95.75
2023-03-06T20:01:47.919Z,97.23
2023-03-06T20:04:16.889Z,97.71
2023-03-06T20:06:45.428Z,97.50
2023-03-06T20:09:13.163Z,97.97
2023-03-06T20:11:41.996Z,97.72
2023-03-06T20:14:09.958Z,98.43
2023-03-06T20:16:37.563Z,97.76
2023-03-06T20:19:05.273Z,98.82
2023-03-06T20:21:35.258Z,99.19
2023-03-06T20:24:02.753Z,98.94
2023-03-06T20:26:30.658Z,98.37
2023-03-06T20:28:59.480Z,98.16
2023-03-06T20:31:28.102Z,98.58
2023-03-06T20:33:57.262Z,99.65
2023-03-06T20:36:26.668Z,99.27
2023-03-06T20:38:54.177Z,98.70
2023-03-06T20:41:22.836Z,98.57
2023-03-06T20:43:50.643Z,99.11
2023-03-06T20:46:23.796Z,99.56
2023-03-06T20:48:52.314Z,99.46
2023-03-06T20:51:21.229Z,99.71
2023-03-06T20:53:49.474Z,100.00
2023-03-06T20:56:18.058Z,100.00
2023-03-06T20:58:45.682Z,100.00
2023-03-06T21:01:19.976Z,100.00
2023-03-06T21:03:47.914Z,100.00
2023-03-06T21:06:15.496Z,100.00
2023-03-06T21:08:43.025Z,100.00
2023-03-06T21:11:10.531Z,100.00
2023-03-06T21:13:38.351Z,100.00
2023-03-06T21:16:06.652Z,100.00
2023-03-06T21:18:35.540Z,100.00
2023-03-06T21:21:05.658Z,100.00
2023-03-06T21:23:33.120Z,100.00
2023-03-06T21:26:00.644Z,100.00
2023-03-06T21:28:28.393Z,100.00
2023-03-06T21:30:55.909Z,100.00
2023-03-06T21:33:23.343Z,100.00
2023-03-06T21:35:52.756Z,100.00
2023-03-06T21:38:20.240Z,100.00
2023-03-06T21:40:47.691Z,100.00
2023-03-06T21:43:17.393Z,100.00
2023-03-06T21:45:45.059Z,100.00
2023-03-06T21:48:12.634Z,100.00
2023-03-06T21:50:40.167Z,100.00
2023-03-06T21:53:09.489Z,100.00
2023-03-06T21:55:40.311Z,100.00
2023-03-06T21:58:08.082Z,100.00
2023-03-06T22:00:36.482Z,100.00
2023-03-06T22:03:04.660Z,100.00
2023-03-06T22:05:32.746Z,100.00
2023-03-06T22:08:00.237Z,100.00
2023-03-06T22:10:29.103Z,100.00
2023-03-06T22:12:56.575Z,100.00
2023-03-06T22:15:23.996Z,100.00
2023-03-06T22:17:51.479Z,100.00
2023-03-06T22:20:19.135Z,100.00
2023-03-06T22:22:46.575Z,100.00
2023-03-06T22:25:14.623Z,100.00
2023-03-06T22:27:43.482Z,100.00
2023-03-06T22:30:11.571Z,100.00
2023-03-06T22:32:39.100Z,100.00
2023-03-06T22:35:06.946Z,100.00
2023-03-06T22:37:34.470Z,100.00
2023-03-06T22:40:01.969Z,100.00
2023-03-06T22:42:29.670Z,100.00
2023-03-06T22:44:58.469Z,100.00
2023-03-06T22:47:25.934Z,100.00
2023-03-06T22:49:53.392Z,100.00
2023-03-06T22:52:20.882Z,100.00
2023-03-06T22:54:48.368Z,100.00
2023-03-06T22:57:15.810Z,100.00
2023-03-06T22:59:43.222Z,100.00
2023-03-06T23:02:12.133Z,100.00
2023-03-06T23:04:39.701Z,100.00
2023-03-06T23:07:07.499Z,100.00
2023-03-06T23:09:35.012Z,100.00
2023-03-06T23:12:02.475Z,100.00
2023-03-06T23:14:30.055Z,100.00
2023-03-06T23:16:57.589Z,100.00
2023-03-06T23:19:26.638Z,100.00
2023-03-06T23:21:54.121Z,100.00
2023-03-06T23:24:21.633Z,98.93
2023-03-06T23:26:49.158Z,99.22
2023-03-06T23:29:16.666Z,99.24
2023-03-06T23:31:44.118Z,99.90
2023-03-06T23:34:12.757Z,100.00
2023-03-06T23:36:41.664Z,100.00
2023-03-06T23:39:09.560Z,100.00
2023-03-06T23:41:36.974Z,100.00
2023-03-06T23:44:05.031Z,100.00
2023-03-06T23:46:32.533Z,100.00
2023-03-06T23:49:00.086Z,100.00
2023-03-06T23:51:27.646Z,100.00
2023-03-06T23:53:57.328Z,100.00
2023-03-06T23:56:25.257Z,100.00
2023-03-06T23:58:52.743Z,100.00
